createdAt,value
2023-05-21T00:00:21.349Z,210.13
2023-05-21T00:01:21.389Z,211.51
2023-05-21T00:02:21.459Z,211.59
2023-05-21T00:03:21.521Z,214.59
2023-05-21T00:04:21.495Z,214.64
2023-05-21T00:05:21.589Z,216.21
2023-05-21T00:06:21.663Z,222.53
2023-05-21T00:07:21.626Z,223.93
2023-05-21T00:08:21.691Z,224.19
2023-05-21T00:09:21.737Z,224.72
2023-05-21T00:10:21.772Z,224.93
2023-05-21T00:11:21.789Z,223.45
2023-05-21T00:12:21.872Z,223.77
2023-05-21T00:13:21.913Z,225.33
2023-05-21T00:14:21.937Z,225.16
2023-05-21T00:15:22.002Z,227.06
2023-05-21T00:16:22.085Z,225.77
2023-05-21T00:17:22.075Z,224.65
2023-05-21T00:18:22.104Z,222.31
2023-05-21T00:19:22.205Z,225.25
2023-05-21T00:20:22.237Z,222.56
2023-05-21T00:21:22.236Z,225.39
2023-05-21T00:22:22.291Z,227.50
2023-05-21T00:23:22.326Z,226.41
2023-05-21T00:24:22.361Z,227.25
2023-05-21T00:25:22.435Z,224.77
2023-05-21T00:26:22.452Z,222.71
2023-05-21T00:27:22.484Z,223.52
2023-05-21T00:28:22.534Z,226.33
2023-05-21T00:29:22.606Z,228.66
2023-05-21T00:30:22.635Z,226.69
2023-05-21T00:31:22.781Z,226.79
2023-05-21T00:32:22.717Z,227.98
2023-05-21T00:33:22.757Z,230.07
2023-05-21T00:34:22.777Z,232.85
2023-05-21T00:35:22.829Z,233.61
2023-05-21T00:36:22.872Z,233.15
2023-05-21T00:37:22.875Z,231.07
2023-05-21T00:38:22.962Z,228.95
2023-05-21T00:39:23.022Z,229.45
2023-05-21T00:40:23.052Z,227.83
2023-05-21T00:41:23.081Z,228.28
2023-05-21T00:42:23.130Z,230.16
2023-05-21T00:43:23.154Z,234.28
2023-05-21T00:44:23.237Z,232.02
2023-05-21T00:45:23.307Z,231.90
2023-05-21T00:46:23.361Z,232.49
2023-05-21T00:47:23.399Z,232.89
2023-05-21T00:48:23.432Z,234.91
2023-05-21T00:49:23.502Z,234.00
2023-05-21T00:50:23.564Z,233.48
2023-05-21T00:51:23.563Z,231.07
2023-05-21T00:52:23.640Z,230.33
2023-05-21T00:53:23.680Z,231.84
2023-05-21T00:54:23.701Z,232.76
2023-05-21T00:55:23.747Z,233.89
2023-05-21T00:56:23.809Z,232.97
2023-05-21T00:57:23.861Z,232.26
2023-05-21T00:58:23.905Z,232.93
2023-05-21T00:59:23.939Z,234.36
2023-05-21T01:00:24.045Z,234.25
2023-05-21T01:01:24.086Z,232.33
2023-05-21T01:02:24.461Z,235.76
2023-05-21T01:03:24.327Z,238.12
2023-05-21T01:04:24.181Z,238.73
2023-05-21T01:05:24.230Z,238.10
2023-05-21T01:06:24.259Z,237.88
2023-05-21T01:07:24.322Z,236.88
2023-05-21T01:08:24.391Z,236.53
2023-05-21T01:09:24.440Z,235.27
2023-05-21T01:10:24.526Z,235.80
2023-05-21T01:11:24.537Z,238.68
2023-05-21T01:12:24.630Z,236.60
2023-05-21T01:13:24.639Z,237.37
2023-05-21T01:14:24.680Z,239.27
2023-05-21T01:15:24.733Z,240.52
2023-05-21T01:16:24.841Z,242.22
2023-05-21T01:17:24.880Z,242.37
2023-05-21T01:18:24.920Z,240.28
2023-05-21T01:19:24.963Z,239.33
2023-05-21T01:20:24.973Z,239.54
2023-05-21T01:21:25.019Z,239.46
2023-05-21T01:22:25.209Z,241.10
2023-05-21T01:23:25.109Z,244.13
2023-05-21T01:24:25.161Z,247.13
2023-05-21T01:25:25.279Z,246.83
2023-05-21T01:26:25.271Z,248.94
2023-05-21T01:27:25.354Z,247.29
2023-05-21T01:28:25.417Z,246.35
2023-05-21T01:29:25.468Z,248.41
2023-05-21T01:30:25.510Z,249.91
2023-05-21T01:31:25.573Z,250.00
2023-05-21T01:32:25.603Z,248.48
2023-05-21T01:33:25.678Z,245.93
2023-05-21T01:34:25.686Z,249.72
2023-05-21T01:35:25.755Z,250.00
2023-05-21T01:36:25.814Z,249.40
2023-05-21T01:37:25.835Z,247.99
2023-05-21T01:38:25.903Z,244.96
2023-05-21T01:39:25.953Z,244.00
2023-05-21T01:40:26.005Z,246.23
2023-05-21T01:41:26.070Z,249.25
2023-05-21T01:42:26.123Z,250.00
2023-05-21T01:43:26.172Z,248.26
2023-05-21T01:44:26.199Z,247.82
2023-05-21T01:45:26.235Z,247.26
2023-05-21T01:46:26.349Z,247.27
2023-05-21T01:47:26.360Z,249.97
2023-05-21T01:48:26.364Z,248.55
2023-05-21T01:49:26.401Z,247.80
2023-05-21T01:50:26.495Z,246.02
2023-05-21T01:51:26.509Z,247.15
2023-05-21T01:52:26.581Z,247.76
2023-05-21T01:53:26.657Z,246.00
2023-05-21T01:54:26.718Z,245.98
2023-05-21T01:55:26.757Z,248.66
2023-05-21T01:56:26.829Z,249.67
2023-05-21T01:57:26.876Z,249.76
2023-05-21T01:58:26.934Z,248.52
2023-05-21T01:59:27.005Z,247.90
2023-05-21T02:00:27.165Z,246.38
2023-05-21T02:01:27.147Z,248.18
2023-05-21T02:02:27.187Z,248.38
2023-05-21T02:03:27.281Z,246.71
2023-05-21T02:04:27.235Z,247.28
2023-05-21T02:05:27.317Z,248.72
2023-05-21T02:06:27.340Z,249.74
2023-05-21T02:07:27.379Z,249.74
2023-05-21T02:08:27.424Z,249.23
2023-05-21T02:09:27.483Z,248.89
2023-05-21T02:10:27.576Z,249.53
2023-05-21T02:11:27.571Z,250.00
2023-05-21T02:12:27.638Z,249.91
2023-05-21T02:13:27.677Z,249.12
2023-05-21T02:14:27.734Z,248.86
2023-05-21T02:15:27.790Z,249.39
2023-05-21T02:16:27.898Z,248.30
2023-05-21T02:17:27.883Z,249.31
2023-05-21T02:18:27.914Z,250.00
2023-05-21T02:19:28.013Z,249.72
2023-05-21T02:20:28.026Z,248.62
2023-05-21T02:21:28.084Z,248.65
2023-05-21T02:22:28.127Z,248.71
2023-05-21T02:23:28.155Z,250.00
2023-05-21T02:24:28.218Z,250.00
2023-05-21T02:25:28.269Z,248.77
2023-05-21T02:26:28.338Z,249.03
2023-05-21T02:27:28.371Z,249.45
2023-05-21T02:28:28.424Z,249.13
2023-05-21T02:29:28.447Z,247.76
2023-05-21T02:30:28.516Z,246.81
2023-05-21T02:31:28.568Z,247.04
2023-05-21T02:32:28.639Z,247.16
2023-05-21T02:33:28.662Z,247.67
2023-05-21T02:34:28.764Z,248.22
2023-05-21T02:35:28.732Z,248.00
2023-05-21T02:36:28.844Z,248.37
2023-05-21T02:37:28.860Z,248.01
2023-05-21T02:38:28.895Z,247.04
2023-05-21T02:39:28.933Z,248.85
2023-05-21T02:40:28.991Z,249.32
2023-05-21T02:41:29.028Z,249.25
2023-05-21T02:42:29.095Z,249.81
2023-05-21T02:43:29.142Z,249.33
2023-05-21T02:44:29.181Z,249.74
2023-05-21T02:45:29.380Z,248.08
2023-05-21T02:46:29.462Z,248.13
2023-05-21T02:47:29.397Z,248.51
2023-05-21T02:48:29.376Z,248.50
2023-05-21T02:49:29.418Z,248.70
2023-05-21T02:50:29.478Z,248.51
2023-05-21T02:51:29.526Z,247.41
2023-05-21T02:52:29.584Z,249.62
2023-05-21T02:53:29.602Z,248.27
2023-05-21T02:54:30.188Z,249.72
2023-05-21T02:55:29.699Z,249.58
2023-05-21T02:56:29.749Z,249.48
2023-05-21T02:57:29.793Z,249.94
2023-05-21T02:58:29.870Z,248.82
2023-05-21T02:59:29.881Z,249.34
2023-05-21T03:00:29.942Z,249.95
2023-05-21T03:01:30.007Z,248.93
2023-05-21T03:02:30.052Z,248.35
2023-05-21T03:03:30.286Z,247.84
2023-05-21T03:04:30.160Z,246.79
2023-05-21T03:05:30.210Z,247.53
2023-05-21T03:06:30.228Z,249.30
2023-05-21T03:07:30.261Z,248.08
2023-05-21T03:08:30.341Z,247.28
2023-05-21T03:09:30.370Z,248.43
2023-05-21T03:10:30.446Z,249.78
2023-05-21T03:11:30.456Z,249.63
2023-05-21T03:12:30.487Z,248.43
2023-05-21T03:13:30.569Z,248.35
2023-05-21T03:14:30.598Z,247.09
2023-05-21T03:15:30.647Z,247.58
2023-05-21T03:16:30.647Z,246.71
2023-05-21T03:17:30.665Z,246.59
2023-05-21T03:18:30.690Z,247.58
2023-05-21T03:19:30.798Z,246.85
2023-05-21T03:20:30.794Z,246.27
2023-05-21T03:21:30.813Z,246.36
2023-05-21T03:22:30.868Z,248.30
2023-05-21T03:23:30.909Z,249.70
2023-05-21T03:24:30.960Z,246.73
2023-05-21T03:25:31.009Z,246.53
2023-05-21T03:26:31.030Z,246.61
2023-05-21T03:27:31.036Z,245.68
2023-05-21T03:28:31.107Z,246.14
2023-05-21T03:29:31.137Z,247.37
2023-05-21T03:30:31.190Z,246.47
2023-05-21T03:31:31.268Z,246.14
2023-05-21T03:32:31.305Z,247.61
2023-05-21T03:33:32.224Z,248.67
2023-05-21T03:34:31.349Z,248.71
2023-05-21T03:35:31.358Z,248.83
2023-05-21T03:36:31.366Z,249.43
2023-05-21T03:37:31.413Z,249.76
2023-05-21T03:38:31.450Z,249.30
2023-05-21T03:39:31.561Z,249.86
2023-05-21T03:40:31.555Z,249.51
2023-05-21T03:41:31.615Z,250.00
2023-05-21T03:42:31.665Z,249.30
2023-05-21T03:43:31.706Z,248.72
2023-05-21T03:44:31.717Z,249.22
2023-05-21T03:45:31.786Z,248.73
2023-05-21T03:46:31.883Z,248.88
2023-05-21T03:47:31.920Z,248.79
2023-05-21T03:48:31.867Z,248.45
2023-05-21T03:49:31.936Z,248.06
2023-05-21T03:50:31.972Z,247.64
2023-05-21T03:51:32.049Z,249.74
2023-05-21T03:52:32.063Z,249.54
2023-05-21T03:53:32.110Z,248.57
2023-05-21T03:54:32.152Z,249.92
2023-05-21T03:55:32.227Z,248.23
2023-05-21T03:56:32.216Z,248.22
2023-05-21T03:57:32.313Z,249.33
2023-05-21T03:58:32.302Z,248.52
2023-05-21T03:59:32.368Z,247.49
2023-05-21T04:00:32.410Z,249.10
2023-05-21T04:01:32.446Z,248.35
2023-05-21T04:02:32.580Z,248.67
2023-05-21T04:03:32.582Z,247.34
2023-05-21T04:04:32.594Z,248.33
2023-05-21T04:05:32.629Z,249.19
2023-05-21T04:06:32.653Z,248.42
2023-05-21T04:07:32.694Z,249.90
2023-05-21T04:08:32.730Z,250.00
2023-05-21T04:09:33.907Z,249.67
2023-05-21T04:10:32.941Z,245.92
2023-05-21T04:11:32.993Z,245.33
2023-05-21T04:12:33.040Z,245.98
2023-05-21T04:13:33.060Z,245.10
2023-05-21T04:14:33.085Z,247.04
2023-05-21T04:15:33.117Z,247.47
2023-05-21T04:16:33.193Z,247.41
2023-05-21T04:17:33.235Z,244.93
2023-05-21T04:18:33.248Z,244.49
2023-05-21T04:19:33.418Z,243.96
2023-05-21T04:20:33.293Z,244.25
2023-05-21T04:21:33.297Z,244.62
2023-05-21T04:22:33.298Z,247.14
2023-05-21T04:23:33.314Z,248.21
2023-05-21T04:24:33.317Z,248.44
2023-05-21T04:25:33.401Z,247.86
2023-05-21T04:26:33.321Z,249.36
2023-05-21T04:27:33.408Z,246.91
2023-05-21T04:28:33.341Z,248.30
2023-05-21T04:29:33.383Z,248.43
2023-05-21T04:30:33.408Z,250.00
2023-05-21T04:31:33.469Z,249.98
2023-05-21T04:32:33.512Z,249.66
2023-05-21T04:33:33.470Z,249.67
2023-05-21T04:34:33.462Z,249.33
2023-05-21T04:35:33.714Z,249.79
2023-05-21T04:36:33.537Z,249.31
2023-05-21T04:37:33.575Z,249.87
2023-05-21T04:38:33.639Z,250.00
2023-05-21T04:39:33.651Z,249.28
2023-05-21T04:40:33.698Z,248.93
2023-05-21T04:41:33.656Z,249.88
2023-05-21T04:42:33.631Z,249.42
2023-05-21T04:43:33.646Z,247.87
2023-05-21T04:44:33.618Z,248.96
2023-05-21T04:45:33.927Z,249.48
2023-05-21T04:46:33.612Z,249.56
2023-05-21T04:47:33.632Z,249.91
2023-05-21T04:48:33.597Z,250.00
2023-05-21T04:49:33.567Z,250.00
2023-05-21T04:50:33.567Z,250.00
2023-05-21T04:51:33.551Z,249.75
2023-05-21T04:52:33.547Z,248.75
2023-05-21T04:53:33.569Z,248.94
2023-05-21T04:54:33.544Z,249.50
2023-05-21T04:55:33.558Z,249.35
2023-05-21T04:56:33.841Z,249.41
2023-05-21T04:57:33.844Z,250.00
2023-05-21T04:58:33.495Z,249.43
2023-05-21T04:59:33.437Z,249.37
2023-05-21T05:00:33.487Z,249.74
2023-05-21T05:01:33.464Z,248.67
2023-05-21T05:02:33.454Z,248.07
2023-05-21T05:03:33.484Z,247.75
2023-05-21T05:04:33.422Z,249.08
2023-05-21T05:05:33.404Z,249.32
2023-05-21T05:06:33.380Z,248.58
2023-05-21T05:07:33.379Z,249.73
2023-05-21T05:08:33.349Z,248.91
2023-05-21T05:09:33.373Z,249.89
2023-05-21T05:10:33.344Z,249.82
2023-05-21T05:11:33.354Z,249.18
2023-05-21T05:12:33.320Z,249.71
2023-05-21T05:13:33.308Z,247.79
2023-05-21T05:14:33.284Z,248.01
2023-05-21T05:15:33.305Z,248.99
2023-05-21T05:16:33.323Z,248.90
2023-05-21T05:17:33.259Z,248.73
2023-05-21T05:18:33.240Z,249.04
2023-05-21T05:19:33.245Z,247.19
2023-05-21T05:20:33.244Z,249.68
2023-05-21T05:21:33.266Z,249.47
2023-05-21T05:22:33.216Z,249.78
2023-05-21T05:23:33.224Z,249.13
2023-05-21T05:24:33.197Z,249.91
2023-05-21T05:25:33.195Z,249.50
2023-05-21T05:26:33.253Z,249.81
2023-05-21T05:27:33.299Z,249.84
2023-05-21T05:28:33.333Z,250.00
2023-05-21T05:29:33.381Z,249.49
2023-05-21T05:30:33.441Z,248.19
2023-05-21T05:31:33.520Z,248.09
2023-05-21T05:32:33.524Z,249.00
2023-05-21T05:33:33.569Z,247.98
2023-05-21T05:34:33.605Z,249.18
2023-05-21T05:35:33.735Z,249.04
2023-05-21T05:36:33.692Z,248.61
2023-05-21T05:37:33.707Z,246.96
2023-05-21T05:38:33.765Z,247.71
2023-05-21T05:39:33.773Z,246.23
2023-05-21T05:40:33.842Z,246.06
2023-05-21T05:41:33.917Z,246.60
2023-05-21T05:42:33.923Z,245.91
2023-05-21T05:43:33.944Z,247.32
2023-05-21T05:44:33.989Z,248.48
2023-05-21T05:45:34.176Z,249.91
2023-05-21T05:46:34.094Z,249.67
2023-05-21T05:47:34.111Z,249.16
2023-05-21T05:48:34.123Z,247.88
2023-05-21T05:49:34.182Z,247.04
2023-05-21T05:50:34.242Z,244.36
2023-05-21T05:51:34.293Z,244.16
2023-05-21T05:52:34.325Z,242.96
2023-05-21T05:53:34.377Z,241.93
2023-05-21T05:54:34.400Z,241.00
2023-05-21T05:55:34.700Z,240.10
2023-05-21T05:56:34.477Z,239.19
2023-05-21T05:57:34.548Z,238.97
2023-05-21T05:58:34.586Z,238.43
2023-05-21T05:59:34.630Z,238.21
2023-05-21T06:00:34.687Z,237.15
2023-05-21T06:01:34.685Z,238.87
2023-05-21T06:02:34.804Z,237.80
2023-05-21T06:03:34.905Z,236.90
2023-05-21T06:04:34.827Z,236.79
2023-05-21T06:05:35.035Z,238.22
2023-05-21T06:06:34.941Z,238.71
2023-05-21T06:07:34.956Z,238.16
2023-05-21T06:08:37.319Z,235.28
2023-05-21T06:09:35.019Z,234.78
2023-05-21T06:10:34.980Z,235.39
2023-05-21T06:11:35.006Z,236.28
2023-05-21T06:12:34.999Z,235.36
2023-05-21T06:13:34.962Z,237.67
2023-05-21T06:14:34.967Z,236.92
2023-05-21T06:15:35.102Z,238.57
2023-05-21T06:16:34.985Z,235.64
2023-05-21T06:17:34.947Z,232.98
2023-05-21T06:18:34.980Z,234.17
2023-05-21T06:19:34.960Z,235.80
2023-05-21T06:20:34.908Z,236.55
2023-05-21T06:21:34.922Z,237.84
2023-05-21T06:22:34.915Z,235.62
2023-05-21T06:23:34.896Z,237.85
2023-05-21T06:24:34.885Z,240.35
2023-05-21T06:25:35.087Z,241.09
2023-05-21T06:26:34.907Z,241.67
2023-05-21T06:27:34.878Z,238.96
2023-05-21T06:28:34.843Z,241.87
2023-05-21T06:29:34.838Z,243.52
2023-05-21T06:30:34.924Z,244.58
2023-05-21T06:31:34.859Z,244.57
2023-05-21T06:32:34.878Z,237.60
2023-05-21T06:33:34.901Z,240.90
2023-05-21T06:34:34.826Z,237.82
2023-05-21T06:35:34.943Z,232.74
2023-05-21T06:36:34.801Z,232.85
2023-05-21T06:37:34.813Z,236.65
2023-05-21T06:38:34.816Z,234.26
2023-05-21T06:39:34.863Z,235.12
2023-05-21T06:40:34.802Z,238.37
2023-05-21T06:41:34.776Z,238.90
2023-05-21T06:42:34.793Z,238.08
2023-05-21T06:43:34.764Z,243.12
2023-05-21T06:44:34.776Z,244.84
2023-05-21T06:45:35.019Z,244.67
2023-05-21T06:46:34.788Z,244.15
2023-05-21T06:47:34.829Z,240.74
2023-05-21T06:48:34.743Z,242.38
2023-05-21T06:49:34.729Z,241.81
2023-05-21T06:50:35.329Z,236.07
2023-05-21T06:51:34.727Z,236.86
2023-05-21T06:52:34.782Z,239.10
2023-05-21T06:53:34.723Z,241.13
2023-05-21T06:54:34.709Z,242.98
2023-05-21T06:55:34.931Z,242.68
2023-05-21T06:56:34.670Z,236.40
2023-05-21T06:57:34.682Z,233.50
2023-05-21T06:58:34.721Z,238.13
2023-05-21T06:59:34.676Z,237.58
2023-05-21T07:00:34.686Z,225.74
2023-05-21T07:01:34.677Z,224.29
2023-05-21T07:02:34.666Z,227.15
2023-05-21T07:03:34.732Z,229.75
2023-05-21T07:04:34.682Z,234.88
2023-05-21T07:05:34.887Z,236.21
2023-05-21T07:06:34.738Z,234.46
2023-05-21T07:07:34.828Z,232.97
2023-05-21T07:08:34.781Z,233.39
2023-05-21T07:09:34.867Z,232.88
2023-05-21T07:10:34.882Z,232.97
2023-05-21T07:11:34.889Z,230.47
2023-05-21T07:12:34.961Z,232.14
2023-05-21T07:13:34.925Z,233.66
2023-05-21T07:14:34.981Z,235.15
2023-05-21T07:15:35.316Z,235.61
2023-05-21T07:16:35.056Z,235.56
2023-05-21T07:17:35.130Z,237.15
2023-05-21T07:18:35.051Z,236.95
2023-05-21T07:19:35.111Z,233.25
2023-05-21T07:20:35.108Z,231.65
2023-05-21T07:21:35.101Z,229.32
2023-05-21T07:22:35.161Z,225.50
2023-05-21T07:23:35.131Z,224.72
2023-05-21T07:24:35.185Z,225.31
2023-05-21T07:25:35.346Z,223.79
2023-05-21T07:26:35.224Z,221.93
2023-05-21T07:27:35.259Z,216.60
2023-05-21T07:28:35.300Z,211.69
2023-05-21T07:29:35.321Z,210.93
2023-05-21T07:30:35.335Z,217.45
2023-05-21T07:31:35.369Z,220.70
2023-05-21T07:32:35.413Z,223.04
2023-05-21T07:33:35.404Z,224.13
2023-05-21T07:34:35.414Z,222.38
2023-05-21T07:35:35.615Z,219.30
2023-05-21T07:36:35.440Z,219.76
2023-05-21T07:37:35.497Z,219.51
2023-05-21T07:38:35.463Z,216.52
2023-05-21T07:39:35.510Z,214.92
2023-05-21T07:40:35.513Z,214.93
2023-05-21T07:41:35.559Z,215.79
2023-05-21T07:42:35.534Z,216.58
2023-05-21T07:43:35.590Z,217.82
2023-05-21T07:44:35.594Z,219.74
2023-05-21T07:45:35.824Z,218.08
2023-05-21T07:46:35.650Z,216.83
2023-05-21T07:47:35.930Z,216.16
2023-05-21T07:48:35.971Z,213.67
2023-05-21T07:49:35.855Z,213.46
2023-05-21T07:50:35.692Z,212.09
2023-05-21T07:51:35.710Z,213.30
2023-05-21T07:52:35.739Z,211.17
2023-05-21T07:53:35.738Z,213.50
2023-05-21T07:54:35.767Z,209.95
2023-05-21T07:55:36.032Z,206.98
2023-05-21T07:56:35.867Z,210.09
2023-05-21T07:57:35.802Z,212.50
2023-05-21T07:58:35.838Z,213.24
2023-05-21T07:59:35.820Z,214.70
2023-05-21T08:00:35.822Z,216.56
2023-05-21T08:01:35.872Z,220.02
2023-05-21T08:02:35.948Z,221.37
2023-05-21T08:03:36.132Z,220.06
2023-05-21T08:04:37.475Z,221.56
2023-05-21T08:05:36.067Z,223.88
2023-05-21T08:06:35.873Z,224.66
2023-05-21T08:07:35.853Z,222.25
2023-05-21T08:08:35.824Z,225.31
2023-05-21T08:09:35.880Z,224.84
2023-05-21T08:10:35.835Z,225.19
2023-05-21T08:11:36.354Z,226.29
2023-05-21T08:12:35.828Z,225.35
2023-05-21T08:13:35.801Z,227.44
2023-05-21T08:14:35.790Z,228.23
2023-05-21T08:15:35.985Z,225.54
2023-05-21T08:16:35.764Z,224.09
2023-05-21T08:17:35.777Z,223.89
2023-05-21T08:18:35.720Z,222.21
2023-05-21T08:19:35.727Z,221.87
2023-05-21T08:20:35.733Z,221.36
2023-05-21T08:21:35.692Z,222.63
2023-05-21T08:22:35.679Z,224.54
2023-05-21T08:23:35.683Z,226.70
2023-05-21T08:24:35.612Z,222.97
2023-05-21T08:25:35.909Z,219.38
2023-05-21T08:26:35.596Z,219.91
2023-05-21T08:27:35.593Z,216.01
2023-05-21T08:28:35.558Z,215.29
2023-05-21T08:29:35.558Z,213.25
2023-05-21T08:30:35.559Z,211.57
2023-05-21T08:31:35.604Z,212.57
2023-05-21T08:32:35.640Z,214.13
2023-05-21T08:33:35.493Z,213.22
2023-05-21T08:34:35.481Z,217.12
2023-05-21T08:35:35.681Z,217.01
2023-05-21T08:36:35.435Z,219.80
2023-05-21T08:37:35.424Z,219.48
2023-05-21T08:38:35.412Z,222.73
2023-05-21T08:39:35.417Z,222.36
2023-05-21T08:40:35.871Z,216.94
2023-05-21T08:41:35.366Z,221.08
2023-05-21T08:42:37.327Z,219.82
2023-05-21T08:43:35.381Z,221.67
2023-05-21T08:44:35.392Z,223.95
2023-05-21T08:45:35.581Z,224.10
2023-05-21T08:46:35.372Z,221.34
2023-05-21T08:47:35.407Z,220.20
2023-05-21T08:48:35.316Z,221.17
2023-05-21T08:49:35.372Z,219.12
2023-05-21T08:50:35.309Z,217.74
2023-05-21T08:51:35.339Z,214.20
2023-05-21T08:52:35.314Z,217.24
2023-05-21T08:53:35.353Z,220.61
2023-05-21T08:54:35.349Z,220.39
2023-05-21T08:55:35.499Z,217.27
2023-05-21T08:56:35.381Z,217.85
2023-05-21T08:57:35.420Z,220.59
2023-05-21T08:58:35.403Z,219.01
2023-05-21T08:59:35.429Z,217.19
2023-05-21T09:00:36.328Z,216.14
2023-05-21T09:01:35.559Z,214.95
2023-05-21T09:02:35.490Z,214.97
2023-05-21T09:03:35.427Z,213.78
2023-05-21T09:04:35.545Z,216.22
2023-05-21T09:05:35.632Z,211.02
2023-05-21T09:06:35.460Z,209.49
2023-05-21T09:07:35.500Z,209.75
2023-05-21T09:08:35.502Z,207.68
2023-05-21T09:09:35.569Z,210.88
2023-05-21T09:10:35.554Z,211.35
2023-05-21T09:11:35.581Z,209.38
2023-05-21T09:12:35.603Z,204.29
2023-05-21T09:13:38.751Z,202.88
2023-05-21T09:14:35.593Z,205.26
2023-05-21T09:15:35.716Z,204.45
2023-05-21T09:16:35.564Z,202.61
2023-05-21T09:17:35.552Z,198.81
2023-05-21T09:18:35.515Z,200.07
2023-05-21T09:19:35.701Z,203.68
2023-05-21T09:20:35.504Z,203.66
2023-05-21T09:21:35.504Z,201.11
2023-05-21T09:22:35.444Z,191.87
2023-05-21T09:23:35.425Z,190.82
2023-05-21T09:24:36.499Z,188.62
2023-05-21T09:25:35.634Z,187.92
2023-05-21T09:26:35.402Z,191.47
2023-05-21T09:27:35.360Z,192.69
2023-05-21T09:28:35.393Z,191.47
2023-05-21T09:29:35.316Z,194.27
2023-05-21T09:30:36.230Z,194.31
2023-05-21T09:31:35.428Z,190.01
2023-05-21T09:32:35.344Z,189.29
2023-05-21T09:33:35.350Z,182.78
2023-05-21T09:34:35.267Z,180.71
2023-05-21T09:35:36.232Z,178.46
2023-05-21T09:36:35.256Z,177.07
2023-05-21T09:37:35.253Z,175.59
2023-05-21T09:38:35.194Z,171.19
2023-05-21T09:39:35.197Z,163.52
2023-05-21T09:40:35.451Z,155.17
2023-05-21T09:41:35.249Z,153.78
2023-05-21T09:42:35.301Z,147.02
2023-05-21T09:43:35.306Z,144.56
2023-05-21T09:44:35.379Z,144.28
2023-05-21T09:45:35.563Z,143.28
2023-05-21T09:46:35.461Z,140.60
2023-05-21T09:47:35.496Z,135.50
2023-05-21T09:48:35.542Z,129.16
2023-05-21T09:49:35.481Z,118.30
2023-05-21T09:50:35.707Z,116.39
2023-05-21T09:51:35.520Z,114.58
2023-05-21T09:52:35.599Z,111.31
2023-05-21T09:53:35.647Z,107.23
2023-05-21T09:54:35.729Z,105.41
2023-05-21T09:55:35.710Z,101.29
2023-05-21T09:56:35.723Z,100.61
2023-05-21T09:57:35.759Z,97.21
2023-05-21T09:58:35.777Z,96.13
2023-05-21T09:59:35.821Z,99.25
2023-05-21T10:00:35.939Z,101.63
2023-05-21T10:01:35.939Z,99.83
2023-05-21T10:02:35.949Z,96.91
2023-05-21T10:03:35.904Z,101.25
2023-05-21T10:04:35.966Z,94.65
2023-05-21T10:05:35.995Z,90.21
2023-05-21T10:06:35.990Z,85.33
2023-05-21T10:07:36.026Z,83.60
2023-05-21T10:08:36.037Z,85.90
2023-05-21T10:09:36.089Z,85.97
2023-05-21T10:10:36.282Z,74.71
2023-05-21T10:11:36.179Z,78.57
2023-05-21T10:12:36.144Z,87.41
2023-05-21T10:13:36.172Z,79.97
2023-05-21T10:14:36.205Z,57.81
2023-05-21T10:15:36.190Z,48.55
2023-05-21T10:16:36.305Z,52.26
2023-05-21T10:17:36.267Z,49.65
2023-05-21T10:18:36.300Z,49.32
2023-05-21T10:19:36.288Z,50.11
2023-05-21T10:20:36.678Z,46.60
2023-05-21T10:21:36.355Z,44.88
2023-05-21T10:22:36.376Z,50.27
2023-05-21T10:23:36.383Z,53.16
2023-05-21T10:24:36.399Z,59.33
2023-05-21T10:25:36.434Z,63.18
2023-05-21T10:26:36.435Z,65.57
2023-05-21T10:27:36.504Z,67.67
2023-05-21T10:28:36.477Z,55.91
2023-05-21T10:29:36.571Z,51.72
2023-05-21T10:30:36.727Z,52.46
2023-05-21T10:31:36.622Z,52.99
2023-05-21T10:32:36.730Z,58.29
2023-05-21T10:33:36.660Z,63.46
2023-05-21T10:34:36.667Z,57.47
2023-05-21T10:35:36.840Z,49.74
2023-05-21T10:36:36.736Z,44.38
2023-05-21T10:37:36.773Z,41.97
2023-05-21T10:38:36.788Z,42.80
2023-05-21T10:39:36.777Z,43.71
2023-05-21T10:40:37.081Z,46.61
2023-05-21T10:41:36.857Z,47.72
2023-05-21T10:42:36.863Z,43.52
2023-05-21T10:43:36.877Z,36.87
2023-05-21T10:44:36.922Z,34.94
2023-05-21T10:45:36.969Z,32.00
2023-05-21T10:46:36.960Z,32.00
2023-05-21T10:47:37.010Z,35.33
2023-05-21T10:48:37.018Z,36.75
2023-05-21T10:49:37.014Z,35.29
2023-05-21T10:50:37.285Z,26.64
2023-05-21T10:51:37.075Z,27.12
2023-05-21T10:52:37.102Z,25.90
2023-05-21T10:53:37.103Z,34.51
2023-05-21T10:54:37.156Z,27.34
2023-05-21T10:55:37.191Z,26.96
2023-05-21T10:56:37.186Z,29.36
2023-05-21T10:57:37.223Z,27.77
2023-05-21T10:58:37.246Z,28.19
2023-05-21T10:59:37.275Z,27.93
2023-05-21T11:00:37.487Z,28.56
2023-05-21T11:01:37.418Z,28.45
2023-05-21T11:02:37.507Z,29.11
2023-05-21T11:03:37.931Z,28.96
2023-05-21T11:04:37.441Z,27.04
2023-05-21T11:05:37.452Z,27.59
2023-05-21T11:06:37.492Z,30.42
2023-05-21T11:07:37.502Z,25.67
2023-05-21T11:08:37.612Z,28.69
2023-05-21T11:09:37.572Z,30.93
2023-05-21T11:10:37.892Z,27.27
2023-05-21T11:11:37.616Z,26.22
2023-05-21T11:12:37.604Z,25.55
2023-05-21T11:13:37.662Z,29.97
2023-05-21T11:14:37.688Z,32.95
2023-05-21T11:15:37.716Z,33.49
2023-05-21T11:16:37.826Z,32.11
2023-05-21T11:17:37.771Z,28.19
2023-05-21T11:18:37.788Z,25.35
2023-05-21T11:19:38.146Z,28.87
2023-05-21T11:20:38.022Z,28.22
2023-05-21T11:21:37.880Z,29.09
2023-05-21T11:22:37.888Z,33.19
2023-05-21T11:23:37.925Z,29.15
2023-05-21T11:24:37.955Z,26.49
2023-05-21T11:25:37.941Z,27.97
2023-05-21T11:26:38.016Z,28.75
2023-05-21T11:27:38.074Z,26.65
2023-05-21T11:28:38.094Z,26.14
2023-05-21T11:29:38.080Z,25.59
2023-05-21T11:30:40.265Z,26.76
2023-05-21T11:31:38.288Z,30.36
2023-05-21T11:32:38.122Z,27.22
2023-05-21T11:33:38.033Z,25.20
2023-05-21T11:34:38.029Z,25.14
2023-05-21T11:35:38.003Z,27.78
2023-05-21T11:36:37.944Z,27.25
2023-05-21T11:37:37.934Z,26.63
2023-05-21T11:38:37.902Z,29.20
2023-05-21T11:39:37.896Z,26.38
2023-05-21T11:40:38.046Z,25.00
2023-05-21T11:41:37.877Z,26.84
2023-05-21T11:42:37.850Z,25.46
2023-05-21T11:43:37.806Z,27.15
2023-05-21T11:44:37.816Z,28.76
2023-05-21T11:45:37.770Z,28.16
2023-05-21T11:46:37.746Z,26.44
2023-05-21T11:47:37.846Z,26.34
2023-05-21T11:48:37.719Z,25.82
2023-05-21T11:49:37.710Z,25.44
2023-05-21T11:50:37.920Z,25.87
2023-05-21T11:51:37.634Z,26.50
2023-05-21T11:52:37.613Z,33.24
2023-05-21T11:53:37.591Z,26.74
2023-05-21T11:54:37.575Z,28.01
2023-05-21T11:55:37.525Z,27.90
2023-05-21T11:56:37.560Z,26.66
2023-05-21T11:57:37.511Z,29.86
2023-05-21T11:58:37.491Z,28.90
2023-05-21T11:59:37.456Z,24.98
2023-05-21T12:00:38.014Z,29.74
2023-05-21T12:01:37.418Z,33.98
2023-05-21T12:02:37.450Z,32.46
2023-05-21T12:03:37.469Z,30.83
2023-05-21T12:04:37.356Z,29.50
2023-05-21T12:05:37.339Z,30.99
2023-05-21T12:06:37.319Z,32.36
2023-05-21T12:07:37.273Z,29.32
2023-05-21T12:08:37.248Z,29.50
2023-05-21T12:09:37.219Z,25.61
2023-05-21T12:10:37.575Z,26.81
2023-05-21T12:11:37.299Z,28.65
2023-05-21T12:12:53.367Z,35.39
2023-05-21T12:13:38.312Z,33.68
2023-05-21T12:14:37.290Z,26.05
2023-05-21T12:15:37.227Z,22.97
2023-05-21T12:16:37.255Z,22.62
2023-05-21T12:17:37.230Z,19.53
2023-05-21T12:18:37.186Z,25.54
2023-05-21T12:19:37.152Z,25.00
2023-05-21T12:20:37.471Z,28.15
2023-05-21T12:21:37.120Z,28.23
2023-05-21T12:22:37.094Z,27.50
2023-05-21T12:23:37.092Z,30.53
2023-05-21T12:24:37.095Z,31.40
2023-05-21T12:25:37.125Z,34.39
2023-05-21T12:26:37.167Z,38.78
2023-05-21T12:27:37.179Z,36.92
2023-05-21T12:28:37.221Z,38.78
2023-05-21T12:29:37.258Z,39.01
2023-05-21T12:30:37.388Z,40.58
2023-05-21T12:31:37.450Z,42.89
2023-05-21T12:32:37.338Z,40.33
2023-05-21T12:33:37.389Z,40.34